| time (UTC) | temp F | wind direction | speed MPH | gust MPH | rain 1hr in | rain 24hr in | rain mn in | humidity % | barometer mb |
| 20260906191524 | 72 | 261 | 12.0 | 0.0 | 0.00 | 0.00 | 0.00 | 26 | 1004.4 |
| 20260906190028 | 72 | 186 | 11.0 | 0.0 | 0.00 | 0.00 | 0.00 | 26 | 1004.5 |
| 20260906184517 | 71 | 236 | 13.0 | 0.0 | 0.00 | 0.00 | 0.00 | 27 | 1004.7 |
| 20260906183018 | 70 | 190 | 13.0 | 0.0 | 0.00 | 0.00 | 0.00 | 27 | 1005.0 |
| 20260906181533 | 70 | 184 | 14.0 | 0.0 | 0.00 | 0.00 | 0.00 | 26 | 1005.1 |
| 20260906180012 | 70 | 232 | 13.0 | 0.0 | 0.00 | 0.00 | 0.00 | 28 | 1005.3 |
| 20260906174507 | 68 | 221 | 8.0 | 0.0 | 0.00 | 0.00 | 0.00 | 31 | 1005.5 |
| 20260906173005 | 64 | 32 | 3.0 | 0.0 | 0.00 | 0.00 | 0.00 | 45 | 1005.7 |
| 20260906171603 | 63 | 18 | 4.0 | 0.0 | 0.00 | 0.00 | 0.00 | 47 | 1005.6 |
| 20260906170100 | 62 | 32 | 3.0 | 0.0 | 0.00 | 0.00 | 0.00 | 49 | 1005.7 |
| 20260906164554 | 61 | 49 | 3.0 | 0.0 | 0.00 | 0.00 | 0.00 | 50 | 1005.8 |
| 20260906163053 | 60 | 38 | 2.0 | 0.0 | 0.00 | 0.00 | 0.00 | 53 | 1006.0 |
| 20260906161550 | 59 | 348 | 2.0 | 0.0 | 0.00 | 0.00 | 0.00 | 54 | 1006.3 |
| 20260906160046 | 58 | 314 | 2.0 | 0.0 | 0.00 | 0.00 | 0.00 | 55 | 1006.7 |
| 20260906154544 | 58 | 313 | 2.0 | 0.0 | 0.00 | 0.00 | 0.00 | 55 | 1006.8 |
| 20260906153049 | 57 | 254 | 2.0 | 0.0 | 0.00 | 0.00 | 0.00 | 56 | 1007.0 |
| 20260906151541 | 57 | 254 | 1.0 | 0.0 | 0.00 | 0.00 | 0.00 | 56 | 1007.1 |
| 20260906150038 | 56 | 254 | 1.0 | 0.0 | 0.00 | 0.00 | 0.00 | 59 | 1007.3 |
| 20260906144536 | 55 | 254 | 1.0 | 0.0 | 0.00 | 0.00 | 0.00 | 61 | 1007.2 |
| 20260906143028 | 52 | 254 | 1.0 | 0.0 | 0.00 | 0.00 | 0.00 | 66 | 1007.0 |
| 20260906141527 | 49 | 254 | 1.0 | 0.0 | 0.00 | 0.00 | 0.00 | 71 | 1006.9 |
| 20260906140034 | 46 | 261 | 2.0 | 0.0 | 0.00 | 0.00 | 0.00 | 74 | 1006.9 |
| 20260906134524 | 46 | 250 | 2.0 | 0.0 | 0.00 | 0.00 | 0.00 | 75 | 1006.7 |
| 20260906133032 | 46 | 250 | 3.0 | 0.0 | 0.00 | 0.00 | 0.00 | 75 | 1006.6 |
| 20260906131521 | 46 | 250 | 4.0 | 0.0 | 0.00 | 0.00 | 0.00 | 74 | 1006.5 |
| 20260906130020 | 47 | 253 | 3.0 | 0.0 | 0.00 | 0.00 | 0.00 | 74 | 1006.4 |
| 20260906124520 | 47 | 253 | 4.0 | 0.0 | 0.00 | 0.00 | 0.00 | 72 | 1006.2 |
| 20260906123031 | 47 | 256 | 2.0 | 0.0 | 0.00 | 0.00 | 0.00 | 72 | 1006.3 |
| 20260906121512 | 48 | 260 | 3.0 | 0.0 | 0.00 | 0.00 | 0.00 | 70 | 1006.5 |
| 20260906120012 | 48 | 264 | 3.0 | 0.0 | 0.00 | 0.00 | 0.00 | 71 | 1006.3 |
| 20260906114514 | 48 | 250 | 4.0 | 0.0 | 0.00 | 0.00 | 0.00 | 72 | 1006.4 |
| 20260906113012 | 48 | 252 | 3.0 | 0.0 | 0.00 | 0.00 | 0.00 | 72 | 1006.4 |
| 20260906111507 | 48 | 254 | 2.0 | 0.0 | 0.00 | 0.00 | 0.00 | 73 | 1006.3 |
| 20260906110007 | 48 | 255 | 3.0 | 0.0 | 0.00 | 0.00 | 0.00 | 73 | 1006.4 |
| 20260906104504 | 49 | 291 | 1.0 | 0.0 | 0.00 | 0.00 | 0.00 | 71 | 1006.4 |
| 20260906103003 | 49 | 291 | 3.0 | 0.0 | 0.00 | 0.00 | 0.00 | 72 | 1006.5 |
| 20260906101502 | 48 | 251 | 3.0 | 0.0 | 0.00 | 0.00 | 0.00 | 72 | 1006.5 |
| 20260906100058 | 48 | 234 | 2.0 | 0.0 | 0.00 | 0.00 | 0.00 | 72 | 1006.5 |
| 20260906094555 | 49 | 250 | 3.0 | 0.0 | 0.00 | 0.00 | 0.00 | 69 | 1006.5 |
| 20260906093101 | 50 | 250 | 2.0 | 0.0 | 0.00 | 0.00 | 0.00 | 68 | 1006.5 |
| 20260906091552 | 50 | 252 | 2.0 | 0.0 | 0.00 | 0.00 | 0.00 | 68 | 1006.5 |
| 20260906084556 | 50 | 260 | 3.0 | 0.0 | 0.00 | 0.00 | 0.00 | 70 | 1006.6 |
| 20260906083048 | 51 | 292 | 1.0 | 0.0 | 0.00 | 0.00 | 0.00 | 67 | 1006.7 |
| 20260906081552 | 51 | 292 | 2.0 | 0.0 | 0.00 | 0.00 | 0.00 | 68 | 1006.7 |
| 20260906080051 | 50 | 237 | 2.0 | 0.0 | 0.00 | 0.00 | 0.00 | 68 | 1006.7 |
| 20260906074546 | 51 | 182 | 2.0 | 0.0 | 0.00 | 0.00 | 0.00 | 65 | 1006.7 |
| 20260906073053 | 51 | 174 | 2.0 | 0.0 | 0.00 | 0.00 | 0.00 | 66 | 1006.6 |
| 20260906071540 | 51 | 111 | 2.0 | 0.0 | 0.00 | 0.00 | 0.00 | 65 | 1006.8 |
| 20260906070042 | 51 | 110 | 4.0 | 0.0 | 0.00 | 0.00 | 0.00 | 66 | 1006.7 |
| 20260906064537 | 52 | 100 | 1.0 | 0.0 | 0.00 | 0.00 | 0.00 | 63 | 1006.6 |
| 20260906063037 | 53 | 99 | 2.0 | 0.0 | 0.00 | 0.00 | 0.00 | 62 | 1006.6 |
| 20260906061538 | 54 | 99 | 0.0 | 0.0 | 0.00 | 0.00 | 0.00 | 61 | 1006.6 |
| 20260906060037 | 54 | 99 | 3.0 | 0.0 | 0.00 | 0.00 | 0.00 | 61 | 1006.8 |
| 20260906054535 | 55 | 96 | 2.0 | 0.0 | 0.00 | 0.00 | 0.00 | 59 | 1006.8 |
| 20260906053041 | 56 | 83 | 1.0 | 0.0 | 0.00 | 0.00 | 0.00 | 58 | 1006.7 |
| 20260906051535 | 57 | 82 | 2.0 | 0.0 | 0.00 | 0.00 | 0.00 | 57 | 1006.8 |
| 20260906050040 | 58 | 84 | 3.0 | 0.0 | 0.00 | 0.00 | 0.00 | 55 | 1006.9 |
| 20260906044535 | 58 | 98 | 3.0 | 0.0 | 0.00 | 0.00 | 0.00 | 54 | 1006.7 |
| 20260906043042 | 59 | 115 | 3.0 | 0.0 | 0.00 | 0.00 | 0.00 | 53 | 1006.8 |
| 20260906041534 | 59 | 89 | 5.0 | 0.0 | 0.00 | 0.00 | 0.00 | 50 | 1006.5 |
| 20260906040034 | 60 | 82 | 3.0 | 0.0 | 0.00 | 0.00 | 0.00 | 50 | 1006.4 |
| 20260906034532 | 60 | 83 | 4.0 | 0.0 | 0.00 | 0.00 | 0.00 | 48 | 1006.2 |
| 20260906033032 | 61 | 100 | 4.0 | 0.0 | 0.00 | 0.00 | 0.00 | 47 | 1006.2 |
| 20260906031531 | 61 | 96 | 2.0 | 0.0 | 0.00 | 0.00 | 0.00 | 46 | 1006.3 |
| 20260906030031 | 63 | 108 | 3.0 | 0.0 | 0.00 | 0.00 | 0.00 | 44 | 1005.9 |
| 20260906024530 | 64 | 126 | 3.0 | 0.0 | 0.00 | 0.00 | 0.00 | 41 | 1005.8 |
| 20260906023032 | 65 | 194 | 3.0 | 0.0 | 0.00 | 0.00 | 0.00 | 36 | 1005.5 |
| 20260906021530 | 65 | 252 | 6.0 | 0.0 | 0.00 | 0.00 | 0.00 | 36 | 1005.5 |
| 20260906020030 | 66 | 228 | 6.0 | 0.0 | 0.00 | 0.00 | 0.00 | 35 | 1005.4 |
| 20260906014541 | 67 | 259 | 9.0 | 0.0 | 0.00 | 0.00 | 0.00 | 34 | 1005.3 |
| 20260906013032 | 67 | 282 | 12.0 | 0.0 | 0.00 | 0.00 | 0.00 | 33 | 1005.2 |
| 20260906011529 | 68 | 222 | 12.0 | 0.0 | 0.00 | 0.00 | 0.00 | 33 | 1005.0 |
| 20260906010028 | 69 | 241 | 12.0 | 0.0 | 0.00 | 0.00 | 0.00 | 32 | 1004.9 |
| 20260906004526 | 69 | 236 | 12.0 | 0.0 | 0.00 | 0.00 | 0.00 | 31 | 1005.2 |
| 20260906003027 | 70 | 207 | 15.0 | 0.0 | 0.00 | 0.00 | 0.00 | 29 | 1005.0 |
| 20260906001526 | 71 | 265 | 13.0 | 0.0 | 0.00 | 0.00 | 0.00 | 27 | 1005.1 |
| 20260906000026 | 71 | 247 | 13.0 | 0.0 | 0.00 | 0.00 | 0.00 | 26 | 1005.4 |
| 20260905234525 | 72 | 254 | 12.0 | 0.0 | 0.00 | 0.00 | 0.00 | 26 | 1005.1 |
| 20260905233025 | 73 | 262 | 12.0 | 0.0 | 0.00 | 0.00 | 0.00 | 25 | 1005.1 |
| 20260905231524 | 74 | 257 | 9.0 | 0.0 | 0.00 | 0.00 | 0.00 | 24 | 1005.2 |
| 20260905230024 | 73 | 267 | 11.0 | 0.0 | 0.00 | 0.00 | 0.00 | 26 | 1005.3 |
| 20260905224524 | 73 | 244 | 15.0 | 0.0 | 0.00 | 0.00 | 0.00 | 25 | 1005.4 |
| 20260905223031 | 73 | 312 | 12.0 | 0.0 | 0.00 | 0.00 | 0.00 | 24 | 1005.3 |
| 20260905221521 | 73 | 219 | 11.0 | 0.0 | 0.00 | 0.00 | 0.00 | 24 | 1005.6 |
| 20260905220020 | 73 | 258 | 13.0 | 0.0 | 0.00 | 0.00 | 0.00 | 24 | 1005.6 |
| 20260905214518 | 73 | 263 | 12.0 | 0.0 | 0.00 | 0.00 | 0.00 | 24 | 1005.5 |
| 20260905213019 | 73 | 220 | 14.0 | 0.0 | 0.00 | 0.00 | 0.00 | 25 | 1005.5 |
| 20260905211515 | 73 | 196 | 9.0 | 0.0 | 0.00 | 0.00 | 0.00 | 27 | 1005.6 |
| 20260905210015 | 73 | 250 | 6.0 | 0.0 | 0.00 | 0.00 | 0.00 | 27 | 1005.7 |
| 20260905204511 | 72 | 225 | 8.0 | 0.0 | 0.00 | 0.00 | 0.00 | 28 | 1006.0 |
| 20260905203008 | 71 | 227 | 6.0 | 0.0 | 0.00 | 0.00 | 0.00 | 30 | 1006.1 |
| 20260905201507 | 71 | 208 | 7.0 | 0.0 | 0.00 | 0.00 | 0.00 | 31 | 1006.4 |
| 20260905200007 | 71 | 150 | 8.0 | 0.0 | 0.00 | 0.00 | 0.00 | 31 | 1006.5 |
| 20260905194504 | 70 | 217 | 8.0 | 0.0 | 0.00 | 0.00 | 0.00 | 32 | 1006.8 |
| 20260905193002 | 69 | 192 | 7.0 | 0.0 | 0.00 | 0.00 | 0.00 | 34 | 1007.0 |
| 20260905191603 | 69 | 201 | 8.0 | 0.0 | 0.00 | 0.00 | 0.00 | 35 | 1007.2 |